sensor_id;sensor_type;location;lat;lon;timestamp;temperature;humidity
65378;SHT31;51982;51.042;13.806;2023-03-23T00:01:07;14.81;72.56
65378;SHT31;51982;51.042;13.806;2023-03-23T00:03:35;14.80;72.44
65378;SHT31;51982;51.042;13.806;2023-03-23T00:06:01;14.87;72.32
65378;SHT31;51982;51.042;13.806;2023-03-23T00:08:38;14.87;72.09
65378;SHT31;51982;51.042;13.806;2023-03-23T00:11:11;14.93;72.15
65378;SHT31;51982;51.042;13.806;2023-03-23T00:13:41;14.93;72.17
65378;SHT31;51982;51.042;13.806;2023-03-23T00:16:07;14.97;72.31
65378;SHT31;51982;51.042;13.806;2023-03-23T00:18:51;14.98;72.09
65378;SHT31;51982;51.042;13.806;2023-03-23T00:21:18;14.97;72.17
65378;SHT31;51982;51.042;13.806;2023-03-23T00:23:43;15.03;72.37
65378;SHT31;51982;51.042;13.806;2023-03-23T00:26:10;15.01;72.29
65378;SHT31;51982;51.042;13.806;2023-03-23T00:28:35;15.01;72.36
65378;SHT31;51982;51.042;13.806;2023-03-23T00:31:05;15.04;72.09
65378;SHT31;51982;51.042;13.806;2023-03-23T00:33:33;15.08;72.26
65378;SHT31;51982;51.042;13.806;2023-03-23T00:36:03;15.04;72.29
65378;SHT31;51982;51.042;13.806;2023-03-23T00:38:28;15.08;72.10
65378;SHT31;51982;51.042;13.806;2023-03-23T00:40:53;15.11;72.06
65378;SHT31;51982;51.042;13.806;2023-03-23T00:43:19;15.11;72.14
65378;SHT31;51982;51.042;13.806;2023-03-23T00:45:45;15.12;72.25
65378;SHT31;51982;51.042;13.806;2023-03-23T00:48:19;15.14;72.21
65378;SHT31;51982;51.042;13.806;2023-03-23T00:50:44;15.14;72.50
65378;SHT31;51982;51.042;13.806;2023-03-23T00:53:09;15.11;72.49
65378;SHT31;51982;51.042;13.806;2023-03-23T00:55:34;15.14;72.27
65378;SHT31;51982;51.042;13.806;2023-03-23T00:58:00;15.17;72.36
65378;SHT31;51982;51.042;13.806;2023-03-23T01:00:25;15.14;72.46
65378;SHT31;51982;51.042;13.806;2023-03-23T01:02:52;15.14;72.26
65378;SHT31;51982;51.042;13.806;2023-03-23T01:05:18;15.18;72.14
65378;SHT31;51982;51.042;13.806;2023-03-23T01:07:43;15.20;72.03
65378;SHT31;51982;51.042;13.806;2023-03-23T01:10:10;15.18;72.14
65378;SHT31;51982;51.042;13.806;2023-03-23T01:12:38;15.18;72.37
65378;SHT31;51982;51.042;13.806;2023-03-23T01:15:03;15.17;72.31
65378;SHT31;51982;51.042;13.806;2023-03-23T01:17:29;15.17;72.20
65378;SHT31;51982;51.042;13.806;2023-03-23T01:19:54;15.15;72.36
65378;SHT31;51982;51.042;13.806;2023-03-23T01:22:19;15.12;72.03
65378;SHT31;51982;51.042;13.806;2023-03-23T01:24:44;15.12;72.10
65378;SHT31;51982;51.042;13.806;2023-03-23T01:27:10;15.12;71.85
65378;SHT31;51982;51.042;13.806;2023-03-23T01:29:35;15.14;71.65
65378;SHT31;51982;51.042;13.806;2023-03-23T01:32:01;15.12;71.72
65378;SHT31;51982;51.042;13.806;2023-03-23T01:34:27;15.12;71.77
65378;SHT31;51982;51.042;13.806;2023-03-23T01:36:52;15.14;71.98
65378;SHT31;51982;51.042;13.806;2023-03-23T01:39:17;15.14;71.63
65378;SHT31;51982;51.042;13.806;2023-03-23T01:41:42;15.14;71.91
65378;SHT31;51982;51.042;13.806;2023-03-23T01:46:56;15.17;71.74
65378;SHT31;51982;51.042;13.806;2023-03-23T01:49:25;15.10;71.64
65378;SHT31;51982;51.042;13.806;2023-03-23T01:51:54;15.12;71.59
65378;SHT31;51982;51.042;13.806;2023-03-23T01:54:22;15.10;71.50
65378;SHT31;51982;51.042;13.806;2023-03-23T01:56:54;15.10;71.49
65378;SHT31;51982;51.042;13.806;2023-03-23T01:59:22;15.10;71.21
65378;SHT31;51982;51.042;13.806;2023-03-23T02:01:48;15.11;70.94
65378;SHT31;51982;51.042;13.806;2023-03-23T02:04:16;15.11;70.86
65378;SHT31;51982;51.042;13.806;2023-03-23T02:06:42;15.11;70.62
65378;SHT31;51982;51.042;13.806;2023-03-23T02:09:10;15.10;70.79
65378;SHT31;51982;51.042;13.806;2023-03-23T02:11:36;15.11;70.75
65378;SHT31;51982;51.042;13.806;2023-03-23T02:14:01;15.08;70.89
65378;SHT31;51982;51.042;13.806;2023-03-23T02:16:37;15.08;70.40
65378;SHT31;51982;51.042;13.806;2023-03-23T02:19:30;15.10;69.91
65378;SHT31;51982;51.042;13.806;2023-03-23T02:28:13;15.10;70.35
65378;SHT31;51982;51.042;13.806;2023-03-23T02:35:56;15.07;69.96
65378;SHT31;51982;51.042;13.806;2023-03-23T02:38:33;15.08;70.21
65378;SHT31;51982;51.042;13.806;2023-03-23T02:41:01;15.08;70.30
65378;SHT31;51982;51.042;13.806;2023-03-23T02:43:30;15.08;69.55
65378;SHT31;51982;51.042;13.806;2023-03-23T02:45:58;15.11;69.82
65378;SHT31;51982;51.042;13.806;2023-03-23T02:48:28;15.08;69.84
65378;SHT31;51982;51.042;13.806;2023-03-23T02:50:54;15.11;69.73
65378;SHT31;51982;51.042;13.806;2023-03-23T02:53:23;15.08;70.01
65378;SHT31;51982;51.042;13.806;2023-03-23T02:55:50;15.07;70.20
65378;SHT31;51982;51.042;13.806;2023-03-23T02:58:18;15.04;70.72
65378;SHT31;51982;51.042;13.806;2023-03-23T03:00:43;15.03;70.02
65378;SHT31;51982;51.042;13.806;2023-03-23T03:03:13;15.05;69.85
65378;SHT31;51982;51.042;13.806;2023-03-23T03:05:55;15.04;69.94
65378;SHT31;51982;51.042;13.806;2023-03-23T03:08:39;15.03;70.05
65378;SHT31;51982;51.042;13.806;2023-03-23T03:11:08;14.97;69.60
65378;SHT31;51982;51.042;13.806;2023-03-23T03:13:46;14.97;69.68
65378;SHT31;51982;51.042;13.806;2023-03-23T03:16:22;15.00;69.45
65378;SHT31;51982;51.042;13.806;2023-03-23T03:19:09;15.01;69.20
65378;SHT31;51982;51.042;13.806;2023-03-23T03:21:39;15.00;69.35
65378;SHT31;51982;51.042;13.806;2023-03-23T03:24:07;15.03;69.37
65378;SHT31;51982;51.042;13.806;2023-03-23T03:26:37;15.01;69.36
65378;SHT31;51982;51.042;13.806;2023-03-23T03:29:05;15.03;69.40
65378;SHT31;51982;51.042;13.806;2023-03-23T03:31:35;15.01;69.42
65378;SHT31;51982;51.042;13.806;2023-03-23T03:34:00;15.03;69.49
65378;SHT31;51982;51.042;13.806;2023-03-23T03:36:30;15.03;69.71
65378;SHT31;51982;51.042;13.806;2023-03-23T03:39:02;15.04;69.63
65378;SHT31;51982;51.042;13.806;2023-03-23T03:41:33;15.04;69.65
65378;SHT31;51982;51.042;13.806;2023-03-23T03:43:58;15.05;69.75
65378;SHT31;51982;51.042;13.806;2023-03-23T03:46:23;15.05;69.62
65378;SHT31;51982;51.042;13.806;2023-03-23T03:48:52;15.07;69.76
65378;SHT31;51982;51.042;13.806;2023-03-23T03:51:17;15.08;69.61
65378;SHT31;51982;51.042;13.806;2023-03-23T03:53:42;15.05;69.81
65378;SHT31;51982;51.042;13.806;2023-03-23T03:56:08;15.07;69.85
65378;SHT31;51982;51.042;13.806;2023-03-23T03:58:33;15.07;69.60
65378;SHT31;51982;51.042;13.806;2023-03-23T04:01:02;15.08;69.58
65378;SHT31;51982;51.042;13.806;2023-03-23T04:03:27;15.08;69.57
65378;SHT31;51982;51.042;13.806;2023-03-23T04:05:54;15.07;69.83
65378;SHT31;51982;51.042;13.806;2023-03-23T04:08:22;15.10;70.03
65378;SHT31;51982;51.042;13.806;2023-03-23T04:10:47;15.05;69.82
65378;SHT31;51982;51.042;13.806;2023-03-23T04:13:13;15.10;69.73
65378;SHT31;51982;51.042;13.806;2023-03-23T04:15:38;15.10;69.68
65378;SHT31;51982;51.042;13.806;2023-03-23T04:18:04;15.08;69.61
65378;SHT31;51982;51.042;13.806;2023-03-23T04:20:31;15.11;69.60
65378;SHT31;51982;51.042;13.806;2023-03-23T04:22:56;15.08;69.61
65378;SHT31;51982;51.042;13.806;2023-03-23T04:25:21;15.10;69.64
65378;SHT31;51982;51.042;13.806;2023-03-23T04:27:48;15.10;69.61
65378;SHT31;51982;51.042;13.806;2023-03-23T04:30:21;15.11;69.66
65378;SHT31;51982;51.042;13.806;2023-03-23T04:32:47;15.10;69.50
65378;SHT31;51982;51.042;13.806;2023-03-23T04:35:15;15.08;69.56
65378;SHT31;51982;51.042;13.806;2023-03-23T04:37:41;15.10;69.63
65378;SHT31;51982;51.042;13.806;2023-03-23T04:40:08;15.10;69.57
65378;SHT31;51982;51.042;13.806;2023-03-23T04:42:37;15.10;69.65
65378;SHT31;51982;51.042;13.806;2023-03-23T04:45:04;15.11;69.60
65378;SHT31;51982;51.042;13.806;2023-03-23T04:47:32;15.07;69.66
65378;SHT31;51982;51.042;13.806;2023-03-23T04:49:59;15.05;69.87
65378;SHT31;51982;51.042;13.806;2023-03-23T04:52:26;15.05;69.92
65378;SHT31;51982;51.042;13.806;2023-03-23T04:54:53;15.07;69.85
65378;SHT31;51982;51.042;13.806;2023-03-23T04:57:18;15.07;69.95
65378;SHT31;51982;51.042;13.806;2023-03-23T04:59:44;15.04;69.88
65378;SHT31;51982;51.042;13.806;2023-03-23T05:02:12;15.05;69.94
65378;SHT31;51982;51.042;13.806;2023-03-23T05:04:38;15.04;70.19
65378;SHT31;51982;51.042;13.806;2023-03-23T05:07:04;15.08;69.95
65378;SHT31;51982;51.042;13.806;2023-03-23T05:09:29;15.05;69.92
65378;SHT31;51982;51.042;13.806;2023-03-23T05:11:55;15.05;69.88
65378;SHT31;51982;51.042;13.806;2023-03-23T05:14:20;15.08;69.75
65378;SHT31;51982;51.042;13.806;2023-03-23T05:16:46;15.08;69.68
65378;SHT31;51982;51.042;13.806;2023-03-23T05:19:14;15.08;69.68
65378;SHT31;51982;51.042;13.806;2023-03-23T05:21:39;15.04;70.06
65378;SHT31;51982;51.042;13.806;2023-03-23T05:24:05;15.05;69.98
65378;SHT31;51982;51.042;13.806;2023-03-23T05:26:31;15.05;69.97
65378;SHT31;51982;51.042;13.806;2023-03-23T05:28:57;15.07;69.83
65378;SHT31;51982;51.042;13.806;2023-03-23T05:31:23;15.07;69.75
65378;SHT31;51982;51.042;13.806;2023-03-23T05:33:50;15.04;69.80
65378;SHT31;51982;51.042;13.806;2023-03-23T05:36:15;15.07;69.79
65378;SHT31;51982;51.042;13.806;2023-03-23T05:38:41;15.08;69.77
65378;SHT31;51982;51.042;13.806;2023-03-23T05:41:10;15.10;69.71
65378;SHT31;51982;51.042;13.806;2023-03-23T05:43:35;15.11;69.59
65378;SHT31;51982;51.042;13.806;2023-03-23T05:46:01;15.12;69.55
65378;SHT31;51982;51.042;13.806;2023-03-23T05:48:26;15.12;69.80
65378;SHT31;51982;51.042;13.806;2023-03-23T05:50:52;15.12;69.71
65378;SHT31;51982;51.042;13.806;2023-03-23T05:53:17;15.14;69.55
65378;SHT31;51982;51.042;13.806;2023-03-23T05:55:42;15.14;69.47
65378;SHT31;51982;51.042;13.806;2023-03-23T05:58:07;15.17;69.41
65378;SHT31;51982;51.042;13.806;2023-03-23T06:00:33;15.18;69.47
65378;SHT31;51982;51.042;13.806;2023-03-23T06:03:00;15.21;69.70
65378;SHT31;51982;51.042;13.806;2023-03-23T06:05:26;15.21;69.78
65378;SHT31;51982;51.042;13.806;2023-03-23T06:07:51;15.25;69.52
65378;SHT31;51982;51.042;13.806;2023-03-23T06:10:17;15.27;69.35
65378;SHT31;51982;51.042;13.806;2023-03-23T06:12:43;15.22;69.50
65378;SHT31;51982;51.042;13.806;2023-03-23T06:15:09;15.25;69.71
65378;SHT31;51982;51.042;13.806;2023-03-23T06:17:35;15.24;69.90
65378;SHT31;51982;51.042;13.806;2023-03-23T06:20:01;15.28;69.59
65378;SHT31;51982;51.042;13.806;2023-03-23T06:22:29;15.31;69.83
65378;SHT31;51982;51.042;13.806;2023-03-23T06:24:54;15.34;69.70
65378;SHT31;51982;51.042;13.806;2023-03-23T06:27:22;15.36;69.75
65378;SHT31;51982;51.042;13.806;2023-03-23T06:29:47;15.41;69.97
65378;SHT31;51982;51.042;13.806;2023-03-23T06:32:14;15.45;69.65
65378;SHT31;51982;51.042;13.806;2023-03-23T06:34:40;15.49;69.66
65378;SHT31;51982;51.042;13.806;2023-03-23T06:37:08;15.56;69.41
65378;SHT31;51982;51.042;13.806;2023-03-23T06:39:34;15.59;69.70
65378;SHT31;51982;51.042;13.806;2023-03-23T06:41:59;15.63;69.72
65378;SHT31;51982;51.042;13.806;2023-03-23T06:44:25;15.66;70.20
65378;SHT31;51982;51.042;13.806;2023-03-23T06:46:50;15.69;70.22
65378;SHT31;51982;51.042;13.806;2023-03-23T06:49:16;15.72;69.79
65378;SHT31;51982;51.042;13.806;2023-03-23T06:51:41;15.76;69.00
65378;SHT31;51982;51.042;13.806;2023-03-23T06:54:06;15.78;68.71
65378;SHT31;51982;51.042;13.806;2023-03-23T06:56:32;15.82;68.49
65378;SHT31;51982;51.042;13.806;2023-03-23T06:58:57;15.87;68.22
65378;SHT31;51982;51.042;13.806;2023-03-23T07:01:23;15.87;67.85
65378;SHT31;51982;51.042;13.806;2023-03-23T07:03:48;15.92;67.64
65378;SHT31;51982;51.042;13.806;2023-03-23T07:06:14;15.97;67.43
65378;SHT31;51982;51.042;13.806;2023-03-23T07:08:40;16.02;67.34
65378;SHT31;51982;51.042;13.806;2023-03-23T07:11:05;16.06;67.04
65378;SHT31;51982;51.042;13.806;2023-03-23T07:13:31;16.13;66.30
65378;SHT31;51982;51.042;13.806;2023-03-23T07:15:57;16.24;66.14
65378;SHT31;51982;51.042;13.806;2023-03-23T07:18:23;16.30;66.27
65378;SHT31;51982;51.042;13.806;2023-03-23T07:20:52;16.40;66.18
65378;SHT31;51982;51.042;13.806;2023-03-23T07:23:18;16.47;66.26
65378;SHT31;51982;51.042;13.806;2023-03-23T07:25:44;16.53;66.24
65378;SHT31;51982;51.042;13.806;2023-03-23T07:28:10;16.58;66.02
65378;SHT31;51982;51.042;13.806;2023-03-23T07:30:35;16.68;65.72
65378;SHT31;51982;51.042;13.806;2023-03-23T07:33:05;16.69;65.78
65378;SHT31;51982;51.042;13.806;2023-03-23T07:35:31;16.72;65.62
65378;SHT31;51982;51.042;13.806;2023-03-23T07:37:56;16.74;65.46
65378;SHT31;51982;51.042;13.806;2023-03-23T07:40:21;16.72;65.49
65378;SHT31;51982;51.042;13.806;2023-03-23T07:42:52;16.72;64.97
65378;SHT31;51982;51.042;13.806;2023-03-23T07:45:18;16.72;65.09
65378;SHT31;51982;51.042;13.806;2023-03-23T07:47:43;16.77;65.10
65378;SHT31;51982;51.042;13.806;2023-03-23T07:50:09;16.79;65.13
65378;SHT31;51982;51.042;13.806;2023-03-23T07:52:35;16.81;65.06
65378;SHT31;51982;51.042;13.806;2023-03-23T07:55:01;16.81;65.40
65378;SHT31;51982;51.042;13.806;2023-03-23T07:57:29;16.85;65.28
65378;SHT31;51982;51.042;13.806;2023-03-23T07:59:54;16.85;65.19
65378;SHT31;51982;51.042;13.806;2023-03-23T08:02:21;16.87;65.31
65378;SHT31;51982;51.042;13.806;2023-03-23T08:04:47;16.91;65.31
65378;SHT31;51982;51.042;13.806;2023-03-23T08:07:12;16.91;65.32
65378;SHT31;51982;51.042;13.806;2023-03-23T08:09:38;16.95;65.19
65378;SHT31;51982;51.042;13.806;2023-03-23T08:12:04;16.96;65.22
65378;SHT31;51982;51.042;13.806;2023-03-23T08:14:29;16.99;65.37
65378;SHT31;51982;51.042;13.806;2023-03-23T08:16:55;17.01;65.41
65378;SHT31;51982;51.042;13.806;2023-03-23T08:19:21;17.07;65.45
65378;SHT31;51982;51.042;13.806;2023-03-23T08:21:47;17.05;65.46
65378;SHT31;51982;51.042;13.806;2023-03-23T08:24:12;17.04;65.41
65378;SHT31;51982;51.042;13.806;2023-03-23T08:26:38;17.02;65.27
65378;SHT31;51982;51.042;13.806;2023-03-23T08:29:03;17.07;65.61
65378;SHT31;51982;51.042;13.806;2023-03-23T08:31:29;17.01;65.57
65378;SHT31;51982;51.042;13.806;2023-03-23T08:33:54;16.96;65.69
65378;SHT31;51982;51.042;13.806;2023-03-23T08:36:21;16.99;65.85
65378;SHT31;51982;51.042;13.806;2023-03-23T08:38:47;17.01;66.00
65378;SHT31;51982;51.042;13.806;2023-03-23T08:41:12;17.04;66.16
65378;SHT31;51982;51.042;13.806;2023-03-23T08:43:37;16.98;66.07
65378;SHT31;51982;51.042;13.806;2023-03-23T08:46:05;17.01;66.13
65378;SHT31;51982;51.042;13.806;2023-03-23T08:48:34;17.02;66.33
65378;SHT31;51982;51.042;13.806;2023-03-23T08:51:00;17.04;66.12
65378;SHT31;51982;51.042;13.806;2023-03-23T08:53:26;17.02;66.20
65378;SHT31;51982;51.042;13.806;2023-03-23T08:55:55;17.04;66.38
65378;SHT31;51982;51.042;13.806;2023-03-23T08:58:21;17.01;66.44
65378;SHT31;51982;51.042;13.806;2023-03-23T09:00:47;17.05;66.60
65378;SHT31;51982;51.042;13.806;2023-03-23T09:03:12;17.02;66.53
65378;SHT31;51982;51.042;13.806;2023-03-23T09:05:38;17.04;66.62
65378;SHT31;51982;51.042;13.806;2023-03-23T09:08:08;17.02;66.73
65378;SHT31;51982;51.042;13.806;2023-03-23T09:10:33;17.01;66.82
65378;SHT31;51982;51.042;13.806;2023-03-23T09:12:59;17.07;66.84
65378;SHT31;51982;51.042;13.806;2023-03-23T09:15:24;17.09;66.74
65378;SHT31;51982;51.042;13.806;2023-03-23T09:17:51;17.12;67.05
65378;SHT31;51982;51.042;13.806;2023-03-23T09:20:21;17.09;67.21
65378;SHT31;51982;51.042;13.806;2023-03-23T09:22:51;17.15;67.53
65378;SHT31;51982;51.042;13.806;2023-03-23T09:25:19;17.14;67.76
65378;SHT31;51982;51.042;13.806;2023-03-23T09:27:49;17.14;67.97
65378;SHT31;51982;51.042;13.806;2023-03-23T09:30:17;17.14;67.95
65378;SHT31;51982;51.042;13.806;2023-03-23T09:32:44;17.09;68.52
65378;SHT31;51982;51.042;13.806;2023-03-23T09:35:11;17.11;69.12
65378;SHT31;51982;51.042;13.806;2023-03-23T09:37:39;17.15;69.49
65378;SHT31;51982;51.042;13.806;2023-03-23T09:40:11;17.18;69.41
65378;SHT31;51982;51.042;13.806;2023-03-23T09:42:54;17.21;69.91
65378;SHT31;51982;51.042;13.806;2023-03-23T09:48:37;17.26;70.34
65378;SHT31;51982;51.042;13.806;2023-03-23T09:50:57;17.29;70.58
65378;SHT31;51982;51.042;13.806;2023-03-23T09:53:38;17.19;71.30
65378;SHT31;51982;51.042;13.806;2023-03-23T09:56:11;17.23;71.08
65378;SHT31;51982;51.042;13.806;2023-03-23T09:58:45;17.22;71.40
65378;SHT31;51982;51.042;13.806;2023-03-23T10:01:23;17.21;71.78
65378;SHT31;51982;51.042;13.806;2023-03-23T10:03:58;17.18;71.30
65378;SHT31;51982;51.042;13.806;2023-03-23T10:06:25;17.19;72.50
65378;SHT31;51982;51.042;13.806;2023-03-23T10:08:52;17.25;71.22
65378;SHT31;51982;51.042;13.806;2023-03-23T10:11:31;17.30;71.27
65378;SHT31;51982;51.042;13.806;2023-03-23T10:14:10;17.35;71.04
65378;SHT31;51982;51.042;13.806;2023-03-23T10:17:00;17.35;71.42
65378;SHT31;51982;51.042;13.806;2023-03-23T10:19:43;17.38;71.46
65378;SHT31;51982;51.042;13.806;2023-03-23T10:22:12;17.40;71.57
65378;SHT31;51982;51.042;13.806;2023-03-23T10:24:48;17.47;71.94
65378;SHT31;51982;51.042;13.806;2023-03-23T10:27:38;17.46;71.44
65378;SHT31;51982;51.042;13.806;2023-03-23T10:30:19;17.46;71.65
65378;SHT31;51982;51.042;13.806;2023-03-23T10:33:11;17.52;71.80
65378;SHT31;51982;51.042;13.806;2023-03-23T10:35:43;17.57;71.31
65378;SHT31;51982;51.042;13.806;2023-03-23T10:38:14;17.63;72.14
65378;SHT31;51982;51.042;13.806;2023-03-23T10:40:52;17.67;71.59
65378;SHT31;51982;51.042;13.806;2023-03-23T10:43:19;17.73;72.01
65378;SHT31;51982;51.042;13.806;2023-03-23T10:45:50;17.74;71.60
65378;SHT31;51982;51.042;13.806;2023-03-23T10:48:20;17.81;71.96
65378;SHT31;51982;51.042;13.806;2023-03-23T10:50:50;17.84;71.69
65378;SHT31;51982;51.042;13.806;2023-03-23T10:53:28;17.86;71.89
65378;SHT31;51982;51.042;13.806;2023-03-23T10:55:57;17.91;71.98
65378;SHT31;51982;51.042;13.806;2023-03-23T10:58:29;17.97;71.43
65378;SHT31;51982;51.042;13.806;2023-03-23T11:00:55;18.00;71.73
65378;SHT31;51982;51.042;13.806;2023-03-23T11:03:38;18.08;72.22
65378;SHT31;51982;51.042;13.806;2023-03-23T11:06:09;18.08;71.29
65378;SHT31;51982;51.042;13.806;2023-03-23T11:08:46;18.10;71.32
65378;SHT31;51982;51.042;13.806;2023-03-23T11:11:21;18.03;71.18
65378;SHT31;51982;51.042;13.806;2023-03-23T11:13:55;18.04;71.60
65378;SHT31;51982;51.042;13.806;2023-03-23T11:16:26;18.08;71.87
65378;SHT31;51982;51.042;13.806;2023-03-23T11:18:52;18.11;71.81
65378;SHT31;51982;51.042;13.806;2023-03-23T11:21:20;18.08;70.56
65378;SHT31;51982;51.042;13.806;2023-03-23T11:23:50;18.14;71.24
65378;SHT31;51982;51.042;13.806;2023-03-23T11:26:25;18.13;71.14
65378;SHT31;51982;51.042;13.806;2023-03-23T11:28:53;18.13;70.67
65378;SHT31;51982;51.042;13.806;2023-03-23T11:31:26;18.10;70.80
65378;SHT31;51982;51.042;13.806;2023-03-23T11:33:54;18.07;70.87
65378;SHT31;51982;51.042;13.806;2023-03-23T11:36:21;18.07;71.21
65378;SHT31;51982;51.042;13.806;2023-03-23T11:38:54;18.10;71.32
65378;SHT31;51982;51.042;13.806;2023-03-23T11:41:22;18.10;71.31
65378;SHT31;51982;51.042;13.806;2023-03-23T11:43:51;18.13;70.98
65378;SHT31;51982;51.042;13.806;2023-03-23T11:48:57;18.10;70.93
65378;SHT31;51982;51.042;13.806;2023-03-23T11:51:33;18.07;71.17
65378;SHT31;51982;51.042;13.806;2023-03-23T11:54:46;18.05;71.68
65378;SHT31;51982;51.042;13.806;2023-03-23T11:57:12;18.05;71.94
65378;SHT31;51982;51.042;13.806;2023-03-23T11:59:38;18.07;72.54
65378;SHT31;51982;51.042;13.806;2023-03-23T12:02:50;17.97;73.02
65378;SHT31;51982;51.042;13.806;2023-03-23T12:05:32;17.97;72.18
65378;SHT31;51982;51.042;13.806;2023-03-23T12:11:01;17.79;72.73
65378;SHT31;51982;51.042;13.806;2023-03-23T12:16:47;17.77;72.05
65378;SHT31;51982;51.042;13.806;2023-03-23T12:22:14;17.84;72.63
65378;SHT31;51982;51.042;13.806;2023-03-23T12:25:06;17.86;72.71
65378;SHT31;51982;51.042;13.806;2023-03-23T12:28:02;17.84;73.12
65378;SHT31;51982;51.042;13.806;2023-03-23T12:30:42;17.89;73.07
65378;SHT31;51982;51.042;13.806;2023-03-23T12:41:47;17.84;73.06
65378;SHT31;51982;51.042;13.806;2023-03-23T12:44:14;17.84;72.84
65378;SHT31;51982;51.042;13.806;2023-03-23T12:46:59;17.89;73.03
65378;SHT31;51982;51.042;13.806;2023-03-23T12:49:57;17.90;72.45
65378;SHT31;51982;51.042;13.806;2023-03-23T12:52:43;17.87;72.38
65378;SHT31;51982;51.042;13.806;2023-03-23T12:55:32;17.91;72.26
65378;SHT31;51982;51.042;13.806;2023-03-23T12:58:06;17.91;72.52
65378;SHT31;51982;51.042;13.806;2023-03-23T13:00:48;17.91;72.11
65378;SHT31;51982;51.042;13.806;2023-03-23T13:03:39;17.87;70.83
65378;SHT31;51982;51.042;13.806;2023-03-23T13:08:55;17.97;71.50
65378;SHT31;51982;51.042;13.806;2023-03-23T13:11:34;18.04;71.70
65378;SHT31;51982;51.042;13.806;2023-03-23T13:20:13;18.11;71.24
65378;SHT31;51982;51.042;13.806;2023-03-23T13:22:52;18.11;71.00
65378;SHT31;51982;51.042;13.806;2023-03-23T13:28:01;18.10;71.01
65378;SHT31;51982;51.042;13.806;2023-03-23T13:30:28;18.13;71.08
65378;SHT31;51982;51.042;13.806;2023-03-23T13:33:04;18.10;71.01
65378;SHT31;51982;51.042;13.806;2023-03-23T13:35:36;18.17;71.01
65378;SHT31;51982;51.042;13.806;2023-03-23T13:38:21;18.14;71.02
65378;SHT31;51982;51.042;13.806;2023-03-23T13:40:49;18.11;71.13
65378;SHT31;51982;51.042;13.806;2023-03-23T13:43:31;18.07;70.64
65378;SHT31;51982;51.042;13.806;2023-03-23T13:46:10;18.04;69.70
65378;SHT31;51982;51.042;13.806;2023-03-23T13:48:44;18.14;69.65
65378;SHT31;51982;51.042;13.806;2023-03-23T13:54:38;18.23;69.21
65378;SHT31;51982;51.042;13.806;2023-03-23T13:57:21;18.21;68.98
65378;SHT31;51982;51.042;13.806;2023-03-23T13:59:48;18.24;69.44
65378;SHT31;51982;51.042;13.806;2023-03-23T14:02:32;18.30;68.89
65378;SHT31;51982;51.042;13.806;2023-03-23T14:05:51;18.37;69.00
65378;SHT31;51982;51.042;13.806;2023-03-23T14:08:01;18.48;69.21
65378;SHT31;51982;51.042;13.806;2023-03-23T14:10:43;18.55;68.85
65378;SHT31;51982;51.042;13.806;2023-03-23T14:13:20;18.62;68.74
65378;SHT31;51982;51.042;13.806;2023-03-23T14:15:57;18.62;68.51
65378;SHT31;51982;51.042;13.806;2023-03-23T14:18:27;18.69;68.65
65378;SHT31;51982;51.042;13.806;2023-03-23T14:20:55;18.72;68.49
65378;SHT31;51982;51.042;13.806;2023-03-23T14:23:22;18.68;68.11
65378;SHT31;51982;51.042;13.806;2023-03-23T14:26:00;18.64;67.80
65378;SHT31;51982;51.042;13.806;2023-03-23T14:28:32;18.68;67.81
65378;SHT31;51982;51.042;13.806;2023-03-23T14:30:58;18.68;68.08
65378;SHT31;51982;51.042;13.806;2023-03-23T14:33:25;18.66;67.89
65378;SHT31;51982;51.042;13.806;2023-03-23T14:35:51;18.59;67.71
65378;SHT31;51982;51.042;13.806;2023-03-23T14:38:21;18.58;67.75
65378;SHT31;51982;51.042;13.806;2023-03-23T14:40:49;18.56;68.07
65378;SHT31;51982;51.042;13.806;2023-03-23T14:43:19;18.52;67.89
65378;SHT31;51982;51.042;13.806;2023-03-23T14:45:52;18.52;68.10
65378;SHT31;51982;51.042;13.806;2023-03-23T14:48:20;18.52;68.11
65378;SHT31;51982;51.042;13.806;2023-03-23T14:50:56;18.51;67.86
65378;SHT31;51982;51.042;13.806;2023-03-23T14:53:31;18.48;68.13
65378;SHT31;51982;51.042;13.806;2023-03-23T14:56:04;18.45;68.22
65378;SHT31;51982;51.042;13.806;2023-03-23T14:58:31;18.40;68.13
65378;SHT31;51982;51.042;13.806;2023-03-23T15:01:32;18.40;68.25
65378;SHT31;51982;51.042;13.806;2023-03-23T15:06:31;18.40;68.32
65378;SHT31;51982;51.042;13.806;2023-03-23T15:09:00;18.35;68.41
65378;SHT31;51982;51.042;13.806;2023-03-23T15:11:29;18.32;68.44
65378;SHT31;51982;51.042;13.806;2023-03-23T15:13:58;18.28;68.37
65378;SHT31;51982;51.042;13.806;2023-03-23T15:16:30;18.32;68.39
65378;SHT31;51982;51.042;13.806;2023-03-23T15:19:05;18.28;68.42
65378;SHT31;51982;51.042;13.806;2023-03-23T15:21:36;18.28;68.28
65378;SHT31;51982;51.042;13.806;2023-03-23T15:26:45;18.23;68.07
65378;SHT31;51982;51.042;13.806;2023-03-23T15:29:21;18.20;67.94
65378;SHT31;51982;51.042;13.806;2023-03-23T15:31:51;18.20;67.88
65378;SHT31;51982;51.042;13.806;2023-03-23T15:34:35;18.20;67.67
65378;SHT31;51982;51.042;13.806;2023-03-23T15:37:19;18.17;67.85
65378;SHT31;51982;51.042;13.806;2023-03-23T15:39:45;18.17;67.99
65378;SHT31;51982;51.042;13.806;2023-03-23T15:42:27;18.10;67.71
65378;SHT31;51982;51.042;13.806;2023-03-23T15:47:43;18.10;67.75
65378;SHT31;51982;51.042;13.806;2023-03-23T15:50:18;18.10;67.75
65378;SHT31;51982;51.042;13.806;2023-03-23T15:52:45;18.11;67.88
65378;SHT31;51982;51.042;13.806;2023-03-23T15:55:29;18.08;67.70
65378;SHT31;51982;51.042;13.806;2023-03-23T15:58:00;18.08;67.74
65378;SHT31;51982;51.042;13.806;2023-03-23T16:00:27;18.10;67.63
65378;SHT31;51982;51.042;13.806;2023-03-23T16:02:56;18.07;67.69
65378;SHT31;51982;51.042;13.806;2023-03-23T16:05:22;18.08;67.71
65378;SHT31;51982;51.042;13.806;2023-03-23T16:07:48;18.04;67.75
65378;SHT31;51982;51.042;13.806;2023-03-23T16:10:16;18.01;67.77
65378;SHT31;51982;51.042;13.806;2023-03-23T16:12:42;17.97;67.84
65378;SHT31;51982;51.042;13.806;2023-03-23T16:15:10;17.96;67.67
65378;SHT31;51982;51.042;13.806;2023-03-23T16:17:36;17.96;67.64
65378;SHT31;51982;51.042;13.806;2023-03-23T16:20:01;17.96;67.69
65378;SHT31;51982;51.042;13.806;2023-03-23T16:22:28;17.94;67.66
65378;SHT31;51982;51.042;13.806;2023-03-23T16:24:53;17.97;67.61
65378;SHT31;51982;51.042;13.806;2023-03-23T16:27:18;17.98;67.61
65378;SHT31;51982;51.042;13.806;2023-03-23T16:29:45;17.96;67.61
65378;SHT31;51982;51.042;13.806;2023-03-23T16:32:10;17.93;67.72